Stockton, NY (14784)

9:27 AM EDT on April 29, 2017 (GMT -0400)
Cassadaga Lakes | | Change Station

Elev 1327 ft 42.35 °N, 79.32 °W | Updated 43 seconds ago

Overcast
Overcast
53.4 °F
Feels Like 53.4 °F
N
0.0
Wind Variable Wind from WNW

Today
High -- | Low -- °F
--% Chance of Precip.
Yesterday
High -- | Low -- °F
Precip. -- in
Pressure 30.09 in
Visibility 10.0 miles
Clouds Overcast 2600 ft
Dew Point 53 °F
Humidity 97%
Rainfall 0.11 in
Snow Depth Not available.
6:15 AM 8:15 PM
Waxing Crescent, 13% visible
METAR KDKK 291253Z AUTO 00000KT 10SM OVC026 12/12 A3008 RMK AO2 SLP188 T01220122 $
Pressure 30.09 in
Visibility 10.0 miles
Clouds Overcast 2600 ft
Dew Point 53 °F
Humidity 97%
Rainfall 0.11 in
Snow Depth Not available.
6:15 AM 8:15 PM
Waxing Crescent, 13% visible
METAR KDKK 291253Z AUTO 00000KT 10SM OVC026 12/12 A3008 RMK AO2 SLP188 T01220122 $

Get Severe Weather Alerts

Thanks for signing up!

Be on the lookout for a verification email in your inbox.

You'll start receiving the daily forecast at 8 AM.

×

10-Day Weather Forecast

Almanac

Astronomy

Apr. 29, 2017 Rise Set
Actual Time
Civil Twilight
Nautical Twilight
Astronomical Twilight
Moon
Length of Visible Light
Length of Day
Tomorrow will be .
, % of the Moon is Illuminated

Today's Extremes

State Highs State Lows

Community

WunderPhotos

WunderBlog® & News

Nearby

Air Quality

  Air Quality AQ Index Pollutant
Not available.

Snow Depth

Station Depth Elevation

Earthquake Activity

City Distance Mag. Time & Date
Minimum magnitude displayed is 2.5.

Coastal Water Temperatures

Place Temperature

Stations

Nearby Weather Stations

Station Location Temp. Windchill Dew Point Humidity Wind Precip. Elev Updated Type
                   

Watches & Warnings

There are currently no watches in effect.